sensor_id;sensor_type;location;lat;lon;timestamp;temperature;humidity
14031;DHT22;7090;49.436;8.490;2022-08-30T00:01:22;20.90;99.90
14031;DHT22;7090;49.436;8.490;2022-08-30T00:03:49;20.90;99.90
14031;DHT22;7090;49.436;8.490;2022-08-30T00:06:20;20.70;99.90
14031;DHT22;7090;49.436;8.490;2022-08-30T00:08:46;20.70;1.00
14031;DHT22;7090;49.436;8.490;2022-08-30T00:11:18;20.60;1.00
14031;DHT22;7090;49.436;8.490;2022-08-30T00:13:47;20.50;1.00
14031;DHT22;7090;49.436;8.490;2022-08-30T00:16:15;20.40;1.00
14031;DHT22;7090;49.436;8.490;2022-08-30T00:18:41;20.30;1.00
14031;DHT22;7090;49.436;8.490;2022-08-30T00:21:07;20.20;99.90
14031;DHT22;7090;49.436;8.490;2022-08-30T00:23:33;20.10;1.00
14031;DHT22;7090;49.436;8.490;2022-08-30T00:25:59;20.10;1.00
14031;DHT22;7090;49.436;8.490;2022-08-30T00:28:25;20.10;1.00
14031;DHT22;7090;49.436;8.490;2022-08-30T00:30:50;20.20;1.00
14031;DHT22;7090;49.436;8.490;2022-08-30T00:33:16;20.20;1.00
14031;DHT22;7090;49.436;8.490;2022-08-30T00:35:42;20.10;99.90
14031;DHT22;7090;49.436;8.490;2022-08-30T00:38:10;20.00;99.90
14031;DHT22;7090;49.436;8.490;2022-08-30T00:40:37;19.80;1.00
14031;DHT22;7090;49.436;8.490;2022-08-30T00:43:06;19.70;1.00
14031;DHT22;7090;49.436;8.490;2022-08-30T00:45:35;19.70;1.00
14031;DHT22;7090;49.436;8.490;2022-08-30T00:48:01;19.60;99.90
14031;DHT22;7090;49.436;8.490;2022-08-30T00:50:30;19.50;99.90
14031;DHT22;7090;49.436;8.490;2022-08-30T00:52:59;19.40;1.00
14031;DHT22;7090;49.436;8.490;2022-08-30T00:55:25;19.20;99.90
14031;DHT22;7090;49.436;8.490;2022-08-30T00:57:56;19.20;1.00
14031;DHT22;7090;49.436;8.490;2022-08-30T01:00:23;19.10;43.00
14031;DHT22;7090;49.436;8.490;2022-08-30T01:02:48;19.10;99.90
14031;DHT22;7090;49.436;8.490;2022-08-30T01:05:15;19.00;1.00
14031;DHT22;7090;49.436;8.490;2022-08-30T01:07:41;18.90;1.00
14031;DHT22;7090;49.436;8.490;2022-08-30T01:10:09;19.00;1.00
14031;DHT22;7090;49.436;8.490;2022-08-30T01:12:37;18.90;1.00
14031;DHT22;7090;49.436;8.490;2022-08-30T01:15:04;19.00;99.90
14031;DHT22;7090;49.436;8.490;2022-08-30T01:17:30;19.30;99.90
14031;DHT22;7090;49.436;8.490;2022-08-30T01:20:00;19.50;99.90
14031;DHT22;7090;49.436;8.490;2022-08-30T01:24:55;19.40;65.30
14031;DHT22;7090;49.436;8.490;2022-08-30T01:27:22;19.30;1.00
14031;DHT22;7090;49.436;8.490;2022-08-30T01:29:49;19.30;1.00
14031;DHT22;7090;49.436;8.490;2022-08-30T01:32:18;19.30;1.00
14031;DHT22;7090;49.436;8.490;2022-08-30T01:34:44;19.30;1.00
14031;DHT22;7090;49.436;8.490;2022-08-30T01:37:16;19.20;1.00
14031;DHT22;7090;49.436;8.490;2022-08-30T01:39:45;18.90;1.00
14031;DHT22;7090;49.436;8.490;2022-08-30T01:42:12;18.90;99.90
14031;DHT22;7090;49.436;8.490;2022-08-30T01:44:38;19.00;99.90
14031;DHT22;7090;49.436;8.490;2022-08-30T01:47:04;19.10;89.10
14031;DHT22;7090;49.436;8.490;2022-08-30T01:49:30;19.00;99.90
14031;DHT22;7090;49.436;8.490;2022-08-30T01:51:55;18.90;99.90
14031;DHT22;7090;49.436;8.490;2022-08-30T01:54:21;18.90;99.90
14031;DHT22;7090;49.436;8.490;2022-08-30T01:56:47;19.00;1.00
14031;DHT22;7090;49.436;8.490;2022-08-30T01:59:12;19.20;99.90
14031;DHT22;7090;49.436;8.490;2022-08-30T02:01:39;19.00;99.90
14031;DHT22;7090;49.436;8.490;2022-08-30T02:04:06;18.80;99.90
14031;DHT22;7090;49.436;8.490;2022-08-30T02:06:32;18.70;1.00
14031;DHT22;7090;49.436;8.490;2022-08-30T02:08:58;18.40;1.00
14031;DHT22;7090;49.436;8.490;2022-08-30T02:11:23;18.40;1.00
14031;DHT22;7090;49.436;8.490;2022-08-30T02:13:50;18.20;1.00
14031;DHT22;7090;49.436;8.490;2022-08-30T02:16:18;18.00;1.00
14031;DHT22;7090;49.436;8.490;2022-08-30T02:18:47;17.90;32.10
14031;DHT22;7090;49.436;8.490;2022-08-30T02:21:14;17.90;83.70
14031;DHT22;7090;49.436;8.490;2022-08-30T02:23:40;17.80;99.90
14031;DHT22;7090;49.436;8.490;2022-08-30T02:26:06;17.90;99.90
14031;DHT22;7090;49.436;8.490;2022-08-30T02:28:32;17.80;99.90
14031;DHT22;7090;49.436;8.490;2022-08-30T02:30:58;17.70;99.90
14031;DHT22;7090;49.436;8.490;2022-08-30T02:33:24;17.70;99.90
14031;DHT22;7090;49.436;8.490;2022-08-30T02:35:49;17.70;99.90
14031;DHT22;7090;49.436;8.490;2022-08-30T02:38:15;17.70;99.90
14031;DHT22;7090;49.436;8.490;2022-08-30T02:40:41;17.60;99.90
14031;DHT22;7090;49.436;8.490;2022-08-30T02:43:08;17.60;99.90
14031;DHT22;7090;49.436;8.490;2022-08-30T02:45:34;17.50;99.90
14031;DHT22;7090;49.436;8.490;2022-08-30T02:47:59;17.50;1.00
14031;DHT22;7090;49.436;8.490;2022-08-30T02:50:25;17.50;1.00
14031;DHT22;7090;49.436;8.490;2022-08-30T02:52:51;17.40;1.00
14031;DHT22;7090;49.436;8.490;2022-08-30T02:55:17;17.40;1.00
14031;DHT22;7090;49.436;8.490;2022-08-30T02:57:43;17.30;1.00
14031;DHT22;7090;49.436;8.490;2022-08-30T03:00:11;17.30;1.00
14031;DHT22;7090;49.436;8.490;2022-08-30T03:02:38;17.10;1.00
14031;DHT22;7090;49.436;8.490;2022-08-30T03:05:06;17.00;1.00
14031;DHT22;7090;49.436;8.490;2022-08-30T03:07:32;17.00;1.00
14031;DHT22;7090;49.436;8.490;2022-08-30T03:09:58;17.00;1.00
14031;DHT22;7090;49.436;8.490;2022-08-30T03:12:24;17.00;1.00
14031;DHT22;7090;49.436;8.490;2022-08-30T03:14:50;17.10;1.00
14031;DHT22;7090;49.436;8.490;2022-08-30T03:17:16;17.00;1.00
14031;DHT22;7090;49.436;8.490;2022-08-30T03:19:42;16.90;1.00
14031;DHT22;7090;49.436;8.490;2022-08-30T03:22:09;16.80;1.00
14031;DHT22;7090;49.436;8.490;2022-08-30T03:24:35;16.80;1.00
14031;DHT22;7090;49.436;8.490;2022-08-30T03:27:00;16.70;1.00
14031;DHT22;7090;49.436;8.490;2022-08-30T03:29:26;16.60;1.00
14031;DHT22;7090;49.436;8.490;2022-08-30T03:31:54;16.60;1.00
14031;DHT22;7090;49.436;8.490;2022-08-30T03:34:21;16.60;1.00
14031;DHT22;7090;49.436;8.490;2022-08-30T03:36:46;16.70;1.00
14031;DHT22;7090;49.436;8.490;2022-08-30T03:39:13;16.50;1.00
14031;DHT22;7090;49.436;8.490;2022-08-30T03:41:39;16.50;1.00
14031;DHT22;7090;49.436;8.490;2022-08-30T03:44:04;16.60;1.00
14031;DHT22;7090;49.436;8.490;2022-08-30T03:46:30;16.70;1.00
14031;DHT22;7090;49.436;8.490;2022-08-30T03:48:56;16.60;1.00
14031;DHT22;7090;49.436;8.490;2022-08-30T03:51:23;16.40;1.00
14031;DHT22;7090;49.436;8.490;2022-08-30T03:53:48;16.30;1.00
14031;DHT22;7090;49.436;8.490;2022-08-30T03:56:15;16.30;1.00
14031;DHT22;7090;49.436;8.490;2022-08-30T03:58:41;16.30;1.00
14031;DHT22;7090;49.436;8.490;2022-08-30T04:01:06;16.40;1.00
14031;DHT22;7090;49.436;8.490;2022-08-30T04:03:32;16.30;1.00
14031;DHT22;7090;49.436;8.490;2022-08-30T04:05:58;16.20;1.00
14031;DHT22;7090;49.436;8.490;2022-08-30T04:08:25;16.20;1.00
14031;DHT22;7090;49.436;8.490;2022-08-30T04:10:51;16.10;1.00
14031;DHT22;7090;49.436;8.490;2022-08-30T04:13:19;16.00;1.00
14031;DHT22;7090;49.436;8.490;2022-08-30T04:15:45;15.90;1.00
14031;DHT22;7090;49.436;8.490;2022-08-30T04:18:10;16.00;1.00
14031;DHT22;7090;49.436;8.490;2022-08-30T04:20:37;16.30;1.00
14031;DHT22;7090;49.436;8.490;2022-08-30T04:23:04;16.70;1.00
14031;DHT22;7090;49.436;8.490;2022-08-30T04:25:35;17.00;1.00
14031;DHT22;7090;49.436;8.490;2022-08-30T04:28:03;17.10;1.00
14031;DHT22;7090;49.436;8.490;2022-08-30T04:30:29;17.10;1.00
14031;DHT22;7090;49.436;8.490;2022-08-30T04:32:54;17.20;1.00
14031;DHT22;7090;49.436;8.490;2022-08-30T04:35:20;17.00;1.00
14031;DHT22;7090;49.436;8.490;2022-08-30T04:37:46;16.70;1.00
14031;DHT22;7090;49.436;8.490;2022-08-30T04:40:12;16.50;1.00
14031;DHT22;7090;49.436;8.490;2022-08-30T04:42:39;16.40;1.00
14031;DHT22;7090;49.436;8.490;2022-08-30T04:45:07;16.20;1.00
14031;DHT22;7090;49.436;8.490;2022-08-30T04:47:34;16.30;1.00
14031;DHT22;7090;49.436;8.490;2022-08-30T04:50:00;16.70;1.00
14031;DHT22;7090;49.436;8.490;2022-08-30T04:52:28;16.80;1.00
14031;DHT22;7090;49.436;8.490;2022-08-30T04:54:57;17.10;1.00
14031;DHT22;7090;49.436;8.490;2022-08-30T04:57:24;17.00;1.00
14031;DHT22;7090;49.436;8.490;2022-08-30T04:59:50;16.80;1.00
14031;DHT22;7090;49.436;8.490;2022-08-30T05:02:17;16.50;1.00
14031;DHT22;7090;49.436;8.490;2022-08-30T05:04:43;16.50;1.00
14031;DHT22;7090;49.436;8.490;2022-08-30T05:07:29;16.50;1.00
14031;DHT22;7090;49.436;8.490;2022-08-30T05:09:55;16.50;1.00
14031;DHT22;7090;49.436;8.490;2022-08-30T05:12:22;16.70;1.00
14031;DHT22;7090;49.436;8.490;2022-08-30T05:14:48;16.80;1.00
14031;DHT22;7090;49.436;8.490;2022-08-30T05:17:14;17.00;1.00
14031;DHT22;7090;49.436;8.490;2022-08-30T05:19:39;17.20;1.00
14031;DHT22;7090;49.436;8.490;2022-08-30T05:22:05;17.40;1.00
14031;DHT22;7090;49.436;8.490;2022-08-30T05:24:30;17.50;1.00
14031;DHT22;7090;49.436;8.490;2022-08-30T05:26:57;17.80;1.00
14031;DHT22;7090;49.436;8.490;2022-08-30T05:29:23;18.20;1.00
14031;DHT22;7090;49.436;8.490;2022-08-30T05:31:49;18.80;1.00
14031;DHT22;7090;49.436;8.490;2022-08-30T05:34:15;19.20;99.90
14031;DHT22;7090;49.436;8.490;2022-08-30T05:36:40;19.60;99.90
14031;DHT22;7090;49.436;8.490;2022-08-30T05:39:08;19.70;99.90
14031;DHT22;7090;49.436;8.490;2022-08-30T05:41:34;20.00;99.90
14031;DHT22;7090;49.436;8.490;2022-08-30T05:44:01;20.00;99.90
14031;DHT22;7090;49.436;8.490;2022-08-30T05:46:28;20.20;99.90
14031;DHT22;7090;49.436;8.490;2022-08-30T05:48:58;20.40;99.90
14031;DHT22;7090;49.436;8.490;2022-08-30T05:51:28;20.60;99.90
14031;DHT22;7090;49.436;8.490;2022-08-30T05:53:55;20.90;99.90
14031;DHT22;7090;49.436;8.490;2022-08-30T05:56:24;21.50;99.90
14031;DHT22;7090;49.436;8.490;2022-08-30T05:58:50;22.10;80.40
14031;DHT22;7090;49.436;8.490;2022-08-30T06:01:28;22.40;99.90
14031;DHT22;7090;49.436;8.490;2022-08-30T06:03:55;22.60;47.60
14031;DHT22;7090;49.436;8.490;2022-08-30T06:06:22;22.80;1.00
14031;DHT22;7090;49.436;8.490;2022-08-30T06:08:49;22.60;1.00
14031;DHT22;7090;49.436;8.490;2022-08-30T06:11:17;22.50;1.00
14031;DHT22;7090;49.436;8.490;2022-08-30T06:13:44;22.20;1.00
14031;DHT22;7090;49.436;8.490;2022-08-30T06:16:12;22.50;1.00
14031;DHT22;7090;49.436;8.490;2022-08-30T06:18:38;22.80;1.00
14031;DHT22;7090;49.436;8.490;2022-08-30T06:21:05;23.00;1.00
14031;DHT22;7090;49.436;8.490;2022-08-30T06:23:31;23.00;14.30
14031;DHT22;7090;49.436;8.490;2022-08-30T06:26:03;23.10;1.00
14031;DHT22;7090;49.436;8.490;2022-08-30T06:28:29;23.30;1.00
14031;DHT22;7090;49.436;8.490;2022-08-30T06:30:55;23.50;99.90
14031;DHT22;7090;49.436;8.490;2022-08-30T06:33:20;23.50;99.90
14031;DHT22;7090;49.436;8.490;2022-08-30T06:35:46;23.70;1.00
14031;DHT22;7090;49.436;8.490;2022-08-30T06:38:12;23.80;1.00
14031;DHT22;7090;49.436;8.490;2022-08-30T06:40:37;23.60;1.00
14031;DHT22;7090;49.436;8.490;2022-08-30T06:43:03;23.60;99.90
14031;DHT22;7090;49.436;8.490;2022-08-30T06:45:28;23.70;28.10
14031;DHT22;7090;49.436;8.490;2022-08-30T06:47:56;23.80;1.00
14031;DHT22;7090;49.436;8.490;2022-08-30T06:50:22;23.80;99.90
14031;DHT22;7090;49.436;8.490;2022-08-30T06:52:49;24.30;1.00
14031;DHT22;7090;49.436;8.490;2022-08-30T06:55:15;24.40;1.00
14031;DHT22;7090;49.436;8.490;2022-08-30T06:57:41;24.40;1.00
14031;DHT22;7090;49.436;8.490;2022-08-30T07:00:10;24.80;1.00
14031;DHT22;7090;49.436;8.490;2022-08-30T07:02:37;24.60;99.90
14031;DHT22;7090;49.436;8.490;2022-08-30T07:05:03;24.70;1.00
14031;DHT22;7090;49.436;8.490;2022-08-30T07:07:29;24.90;1.00
14031;DHT22;7090;49.436;8.490;2022-08-30T07:09:55;25.20;1.00
14031;DHT22;7090;49.436;8.490;2022-08-30T07:12:20;25.60;1.00
14031;DHT22;7090;49.436;8.490;2022-08-30T07:14:46;25.60;1.00
14031;DHT22;7090;49.436;8.490;2022-08-30T07:17:12;25.50;1.00
14031;DHT22;7090;49.436;8.490;2022-08-30T07:19:56;25.70;1.00
14031;DHT22;7090;49.436;8.490;2022-08-30T07:22:22;26.00;99.90
14031;DHT22;7090;49.436;8.490;2022-08-30T07:24:48;26.10;1.00
14031;DHT22;7090;49.436;8.490;2022-08-30T07:27:14;26.10;80.40
14031;DHT22;7090;49.436;8.490;2022-08-30T07:29:40;26.00;99.90
14031;DHT22;7090;49.436;8.490;2022-08-30T07:32:07;26.10;1.00
14031;DHT22;7090;49.436;8.490;2022-08-30T07:34:32;25.80;1.00
14031;DHT22;7090;49.436;8.490;2022-08-30T07:36:58;26.10;1.00
14031;DHT22;7090;49.436;8.490;2022-08-30T07:39:24;26.30;99.90
14031;DHT22;7090;49.436;8.490;2022-08-30T07:41:49;26.20;1.00
14031;DHT22;7090;49.436;8.490;2022-08-30T07:44:15;26.20;1.00
14031;DHT22;7090;49.436;8.490;2022-08-30T07:46:41;26.10;1.00
14031;DHT22;7090;49.436;8.490;2022-08-30T07:49:08;26.30;45.90
14031;DHT22;7090;49.436;8.490;2022-08-30T07:51:37;26.20;1.00
14031;DHT22;7090;49.436;8.490;2022-08-30T07:54:03;26.50;1.00
14031;DHT22;7090;49.436;8.490;2022-08-30T07:56:29;26.80;1.00
14031;DHT22;7090;49.436;8.490;2022-08-30T07:58:54;26.60;99.90
14031;DHT22;7090;49.436;8.490;2022-08-30T08:01:21;26.60;1.00
14031;DHT22;7090;49.436;8.490;2022-08-30T08:03:47;26.70;1.00
14031;DHT22;7090;49.436;8.490;2022-08-30T08:06:15;26.80;1.00
14031;DHT22;7090;49.436;8.490;2022-08-30T08:08:42;27.10;99.90
14031;DHT22;7090;49.436;8.490;2022-08-30T08:11:19;26.90;1.00
14031;DHT22;7090;49.436;8.490;2022-08-30T08:13:46;27.50;99.90
14031;DHT22;7090;49.436;8.490;2022-08-30T08:16:12;27.40;1.00
14031;DHT22;7090;49.436;8.490;2022-08-30T08:18:38;28.00;1.00
14031;DHT22;7090;49.436;8.490;2022-08-30T08:21:03;28.80;1.00
14031;DHT22;7090;49.436;8.490;2022-08-30T08:23:29;29.40;99.90
14031;DHT22;7090;49.436;8.490;2022-08-30T08:25:55;29.40;99.90
14031;DHT22;7090;49.436;8.490;2022-08-30T08:28:21;29.30;1.00
14031;DHT22;7090;49.436;8.490;2022-08-30T08:30:47;29.30;1.00
14031;DHT22;7090;49.436;8.490;2022-08-30T08:33:14;28.90;99.90
14031;DHT22;7090;49.436;8.490;2022-08-30T08:35:40;27.70;29.10
14031;DHT22;7090;49.436;8.490;2022-08-30T08:38:06;28.80;1.00
14031;DHT22;7090;49.436;8.490;2022-08-30T08:43:20;29.10;1.00
14031;DHT22;7090;49.436;8.490;2022-08-30T08:48:32;30.40;1.00
14031;DHT22;7090;49.436;8.490;2022-08-30T08:50:58;30.90;1.00
14031;DHT22;7090;49.436;8.490;2022-08-30T08:53:47;30.90;1.00
14031;DHT22;7090;49.436;8.490;2022-08-30T08:56:16;31.50;1.00
14031;DHT22;7090;49.436;8.490;2022-08-30T08:58:51;30.60;1.00
14031;DHT22;7090;49.436;8.490;2022-08-30T09:01:20;29.70;99.90
14031;DHT22;7090;49.436;8.490;2022-08-30T09:03:47;29.90;1.00
14031;DHT22;7090;49.436;8.490;2022-08-30T09:08:57;29.80;99.90
14031;DHT22;7090;49.436;8.490;2022-08-30T09:11:26;30.20;1.00
14031;DHT22;7090;49.436;8.490;2022-08-30T09:13:52;30.30;1.00
14031;DHT22;7090;49.436;8.490;2022-08-30T09:19:09;30.40;1.00
14031;DHT22;7090;49.436;8.490;2022-08-30T09:21:35;30.80;1.00
14031;DHT22;7090;49.436;8.490;2022-08-30T09:24:03;31.20;1.00
14031;DHT22;7090;49.436;8.490;2022-08-30T09:26:33;31.20;1.00
14031;DHT22;7090;49.436;8.490;2022-08-30T09:28:59;31.20;1.00
14031;DHT22;7090;49.436;8.490;2022-08-30T09:31:26;31.10;1.00
14031;DHT22;7090;49.436;8.490;2022-08-30T09:33:59;31.00;1.00
14031;DHT22;7090;49.436;8.490;2022-08-30T09:36:32;31.20;99.90
14031;DHT22;7090;49.436;8.490;2022-08-30T09:39:05;31.30;99.90
14031;DHT22;7090;49.436;8.490;2022-08-30T09:41:38;31.60;99.90
14031;DHT22;7090;49.436;8.490;2022-08-30T09:49:40;31.80;1.00
14031;DHT22;7090;49.436;8.490;2022-08-30T09:55:07;32.30;1.00
14031;DHT22;7090;49.436;8.490;2022-08-30T10:00:16;32.00;1.00
14031;DHT22;7090;49.436;8.490;2022-08-30T10:05:38;32.20;1.00
14031;DHT22;7090;49.436;8.490;2022-08-30T10:10:54;31.90;1.00
14031;DHT22;7090;49.436;8.490;2022-08-30T10:13:44;32.10;99.90
14031;DHT22;7090;49.436;8.490;2022-08-30T10:24:50;33.90;8.60
14031;DHT22;7090;49.436;8.490;2022-08-30T10:27:52;34.50;99.90
14031;DHT22;7090;49.436;8.490;2022-08-30T10:30:12;34.40;1.00
14031;DHT22;7090;49.436;8.490;2022-08-30T10:32:41;34.30;99.90
14031;DHT22;7090;49.436;8.490;2022-08-30T10:37:40;34.90;1.00
14031;DHT22;7090;49.436;8.490;2022-08-30T10:40:22;34.90;1.00
14031;DHT22;7090;49.436;8.490;2022-08-30T10:43:14;35.00;1.00
14031;DHT22;7090;49.436;8.490;2022-08-30T10:45:45;34.70;1.00
14031;DHT22;7090;49.436;8.490;2022-08-30T10:48:15;34.30;1.00
14031;DHT22;7090;49.436;8.490;2022-08-30T10:50:48;34.40;99.90
14031;DHT22;7090;49.436;8.490;2022-08-30T10:55:59;34.60;1.00
14031;DHT22;7090;49.436;8.490;2022-08-30T10:58:27;34.30;99.90
14031;DHT22;7090;49.436;8.490;2022-08-30T11:14:23;35.50;99.90
14031;DHT22;7090;49.436;8.490;2022-08-30T11:16:51;34.90;1.00
14031;DHT22;7090;49.436;8.490;2022-08-30T11:19:37;33.30;1.00
14031;DHT22;7090;49.436;8.490;2022-08-30T11:22:14;33.00;1.00
14031;DHT22;7090;49.436;8.490;2022-08-30T11:35:43;35.10;1.00
14031;DHT22;7090;49.436;8.490;2022-08-30T11:41:12;34.40;99.90
14031;DHT22;7090;49.436;8.490;2022-08-30T11:43:52;34.10;1.00
14031;DHT22;7090;49.436;8.490;2022-08-30T11:51:36;35.10;1.00
14031;DHT22;7090;49.436;8.490;2022-08-30T11:59:43;35.50;1.00
14031;DHT22;7090;49.436;8.490;2022-08-30T12:10:44;35.60;99.90
14031;DHT22;7090;49.436;8.490;2022-08-30T12:16:00;36.30;99.90
14031;DHT22;7090;49.436;8.490;2022-08-30T12:18:42;36.40;99.90
14031;DHT22;7090;49.436;8.490;2022-08-30T12:26:47;34.20;44.90
14031;DHT22;7090;49.436;8.490;2022-08-30T12:41:51;33.00;1.00
14031;DHT22;7090;49.436;8.490;2022-08-30T12:44:21;32.80;1.00
14031;DHT22;7090;49.436;8.490;2022-08-30T12:46:50;32.80;1.00
14031;DHT22;7090;49.436;8.490;2022-08-30T12:49:17;33.50;1.00
14031;DHT22;7090;49.436;8.490;2022-08-30T12:51:43;31.60;1.00
14031;DHT22;7090;49.436;8.490;2022-08-30T12:54:22;31.30;1.00
14031;DHT22;7090;49.436;8.490;2022-08-30T12:57:01;32.30;1.00
14031;DHT22;7090;49.436;8.490;2022-08-30T13:04:37;35.10;1.00
14031;DHT22;7090;49.436;8.490;2022-08-30T13:07:03;33.80;1.00
14031;DHT22;7090;49.436;8.490;2022-08-30T13:12:03;31.00;1.00
14031;DHT22;7090;49.436;8.490;2022-08-30T13:14:41;31.20;1.00
14031;DHT22;7090;49.436;8.490;2022-08-30T13:17:26;31.60;1.00
14031;DHT22;7090;49.436;8.490;2022-08-30T13:20:06;31.60;1.00
14031;DHT22;7090;49.436;8.490;2022-08-30T13:23:09;31.90;1.00
14031;DHT22;7090;49.436;8.490;2022-08-30T13:25:36;33.00;1.00
14031;DHT22;7090;49.436;8.490;2022-08-30T13:28:03;33.40;1.00
14031;DHT22;7090;49.436;8.490;2022-08-30T13:30:29;34.20;1.00
14031;DHT22;7090;49.436;8.490;2022-08-30T13:32:55;34.90;1.00
14031;DHT22;7090;49.436;8.490;2022-08-30T13:35:21;35.00;5.50
14031;DHT22;7090;49.436;8.490;2022-08-30T13:37:47;33.90;1.00
14031;DHT22;7090;49.436;8.490;2022-08-30T13:40:14;34.30;1.00
14031;DHT22;7090;49.436;8.490;2022-08-30T13:42:41;34.40;33.40
14031;DHT22;7090;49.436;8.490;2022-08-30T13:45:08;34.10;1.00
14031;DHT22;7090;49.436;8.490;2022-08-30T13:47:35;34.60;1.00
14031;DHT22;7090;49.436;8.490;2022-08-30T13:50:00;34.90;1.00
14031;DHT22;7090;49.436;8.490;2022-08-30T13:52:26;35.00;1.00
14031;DHT22;7090;49.436;8.490;2022-08-30T13:54:54;35.00;1.00
14031;DHT22;7090;49.436;8.490;2022-08-30T13:57:24;34.80;1.00
14031;DHT22;7090;49.436;8.490;2022-08-30T13:59:50;35.40;1.00
14031;DHT22;7090;49.436;8.490;2022-08-30T14:02:16;35.80;51.30
14031;DHT22;7090;49.436;8.490;2022-08-30T14:04:41;36.00;1.00
14031;DHT22;7090;49.436;8.490;2022-08-30T14:07:07;35.80;1.00
14031;DHT22;7090;49.436;8.490;2022-08-30T14:09:33;36.20;1.00
14031;DHT22;7090;49.436;8.490;2022-08-30T14:11:59;36.50;1.00
14031;DHT22;7090;49.436;8.490;2022-08-30T14:14:24;36.40;1.00
14031;DHT22;7090;49.436;8.490;2022-08-30T14:16:50;36.80;1.00
14031;DHT22;7090;49.436;8.490;2022-08-30T14:19:17;36.10;1.00
14031;DHT22;7090;49.436;8.490;2022-08-30T14:21:43;36.10;4.50
14031;DHT22;7090;49.436;8.490;2022-08-30T14:24:10;36.40;1.00
14031;DHT22;7090;49.436;8.490;2022-08-30T14:26:46;35.10;33.60
14031;DHT22;7090;49.436;8.490;2022-08-30T14:29:23;32.50;1.00
14031;DHT22;7090;49.436;8.490;2022-08-30T14:31:50;32.90;1.00
14031;DHT22;7090;49.436;8.490;2022-08-30T14:34:17;34.00;1.00
14031;DHT22;7090;49.436;8.490;2022-08-30T14:36:44;34.70;1.00
14031;DHT22;7090;49.436;8.490;2022-08-30T14:39:13;33.90;1.00
14031;DHT22;7090;49.436;8.490;2022-08-30T14:41:42;32.70;1.00
14031;DHT22;7090;49.436;8.490;2022-08-30T14:44:07;32.60;1.00
14031;DHT22;7090;49.436;8.490;2022-08-30T14:46:34;33.80;1.00
14031;DHT22;7090;49.436;8.490;2022-08-30T14:49:00;34.80;1.00
14031;DHT22;7090;49.436;8.490;2022-08-30T14:51:25;35.40;1.00
14031;DHT22;7090;49.436;8.490;2022-08-30T14:53:52;35.80;1.00
14031;DHT22;7090;49.436;8.490;2022-08-30T14:56:19;35.50;99.90
14031;DHT22;7090;49.436;8.490;2022-08-30T14:58:50;35.10;2.10
14031;DHT22;7090;49.436;8.490;2022-08-30T15:01:17;34.80;2.70
14031;DHT22;7090;49.436;8.490;2022-08-30T15:03:43;34.60;1.00
14031;DHT22;7090;49.436;8.490;2022-08-30T15:06:09;34.50;1.00
14031;DHT22;7090;49.436;8.490;2022-08-30T15:08:36;34.60;99.90
14031;DHT22;7090;49.436;8.490;2022-08-30T15:11:10;34.50;1.00
14031;DHT22;7090;49.436;8.490;2022-08-30T15:13:37;34.20;1.00
14031;DHT22;7090;49.436;8.490;2022-08-30T15:16:12;34.70;99.90
14031;DHT22;7090;49.436;8.490;2022-08-30T15:18:38;34.90;99.90
14031;DHT22;7090;49.436;8.490;2022-08-30T15:21:04;34.60;99.90
14031;DHT22;7090;49.436;8.490;2022-08-30T15:23:30;34.40;99.90
14031;DHT22;7090;49.436;8.490;2022-08-30T15:25:55;33.80;1.00
14031;DHT22;7090;49.436;8.490;2022-08-30T15:28:21;33.90;1.00
14031;DHT22;7090;49.436;8.490;2022-08-30T15:30:46;33.30;1.00
14031;DHT22;7090;49.436;8.490;2022-08-30T15:33:12;32.80;99.90
14031;DHT22;7090;49.436;8.490;2022-08-30T15:35:37;32.50;99.90
14031;DHT22;7090;49.436;8.490;2022-08-30T15:38:03;32.00;99.90
14031;DHT22;7090;49.436;8.490;2022-08-30T15:40:33;32.30;99.30
14031;DHT22;7090;49.436;8.490;2022-08-30T15:43:02;32.70;1.00
14031;DHT22;7090;49.436;8.490;2022-08-30T15:45:27;32.30;96.00
14031;DHT22;7090;49.436;8.490;2022-08-30T15:47:53;31.70;1.00
14031;DHT22;7090;49.436;8.490;2022-08-30T15:50:19;31.00;1.00
14031;DHT22;7090;49.436;8.490;2022-08-30T15:52:44;30.70;1.00
14031;DHT22;7090;49.436;8.490;2022-08-30T15:55:10;31.20;1.00
14031;DHT22;7090;49.436;8.490;2022-08-30T15:57:36;31.60;1.00
14031;DHT22;7090;49.436;8.490;2022-08-30T16:00:04;31.80;1.00
14031;DHT22;7090;49.436;8.490;2022-08-30T16:02:30;32.10;1.00
14031;DHT22;7090;49.436;8.490;2022-08-30T16:04:56;32.40;1.00
14031;DHT22;7090;49.436;8.490;2022-08-30T16:07:21;32.50;1.00
14031;DHT22;7090;49.436;8.490;2022-08-30T16:09:47;32.20;1.00
14031;DHT22;7090;49.436;8.490;2022-08-30T16:12:13;32.30;1.00
14031;DHT22;7090;49.436;8.490;2022-08-30T16:14:38;32.20;1.00
14031;DHT22;7090;49.436;8.490;2022-08-30T16:17:04;31.80;1.00
14031;DHT22;7090;49.436;8.490;2022-08-30T16:19:29;31.60;1.00
14031;DHT22;7090;49.436;8.490;2022-08-30T16:21:55;31.30;1.00
14031;DHT22;7090;49.436;8.490;2022-08-30T16:24:21;31.20;1.00
14031;DHT22;7090;49.436;8.490;2022-08-30T16:26:47;31.20;1.00
14031;DHT22;7090;49.436;8.490;2022-08-30T16:29:13;30.90;1.00
14031;DHT22;7090;49.436;8.490;2022-08-30T16:31:39;30.60;99.90
14031;DHT22;7090;49.436;8.490;2022-08-30T16:34:05;30.20;99.90
14031;DHT22;7090;49.436;8.490;2022-08-30T16:36:31;30.10;99.90
14031;DHT22;7090;49.436;8.490;2022-08-30T16:38:58;30.20;99.90
14031;DHT22;7090;49.436;8.490;2022-08-30T16:41:24;30.30;99.90
14031;DHT22;7090;49.436;8.490;2022-08-30T16:43:50;30.30;99.90
14031;DHT22;7090;49.436;8.490;2022-08-30T16:46:17;30.30;99.90
14031;DHT22;7090;49.436;8.490;2022-08-30T16:48:44;30.20;99.90
14031;DHT22;7090;49.436;8.490;2022-08-30T16:51:14;30.10;99.90
14031;DHT22;7090;49.436;8.490;2022-08-30T16:53:41;30.10;1.00
14031;DHT22;7090;49.436;8.490;2022-08-30T16:56:10;30.00;1.00
14031;DHT22;7090;49.436;8.490;2022-08-30T16:58:36;30.00;99.90
14031;DHT22;7090;49.436;8.490;2022-08-30T17:01:02;29.80;99.90
14031;DHT22;7090;49.436;8.490;2022-08-30T17:03:28;29.70;99.90
14031;DHT22;7090;49.436;8.490;2022-08-30T17:05:53;29.70;99.90
14031;DHT22;7090;49.436;8.490;2022-08-30T17:08:19;29.60;99.90
14031;DHT22;7090;49.436;8.490;2022-08-30T17:10:45;29.50;1.00
14031;DHT22;7090;49.436;8.490;2022-08-30T17:13:10;29.50;99.90
14031;DHT22;7090;49.436;8.490;2022-08-30T17:15:36;29.20;99.90
14031;DHT22;7090;49.436;8.490;2022-08-30T17:18:02;29.20;99.90
14031;DHT22;7090;49.436;8.490;2022-08-30T17:20:27;29.00;99.90
14031;DHT22;7090;49.436;8.490;2022-08-30T17:22:57;28.90;99.90
14031;DHT22;7090;49.436;8.490;2022-08-30T17:25:23;28.80;99.90
14031;DHT22;7090;49.436;8.490;2022-08-30T17:27:49;28.70;99.90
14031;DHT22;7090;49.436;8.490;2022-08-30T17:30:14;28.60;1.00
14031;DHT22;7090;49.436;8.490;2022-08-30T17:32:40;28.50;1.00
14031;DHT22;7090;49.436;8.490;2022-08-30T17:35:06;28.50;1.00
14031;DHT22;7090;49.436;8.490;2022-08-30T17:37:31;28.50;1.00
14031;DHT22;7090;49.436;8.490;2022-08-30T17:39:57;28.40;1.00
14031;DHT22;7090;49.436;8.490;2022-08-30T17:42:25;28.30;1.00
14031;DHT22;7090;49.436;8.490;2022-08-30T17:44:50;28.30;1.00
14031;DHT22;7090;49.436;8.490;2022-08-30T17:47:16;28.20;1.00
14031;DHT22;7090;49.436;8.490;2022-08-30T17:49:42;28.10;1.00
14031;DHT22;7090;49.436;8.490;2022-08-30T17:52:07;28.10;1.00
14031;DHT22;7090;49.436;8.490;2022-08-30T17:54:34;28.00;1.00
14031;DHT22;7090;49.436;8.490;2022-08-30T17:57:00;28.00;1.00
14031;DHT22;7090;49.436;8.490;2022-08-30T17:59:27;27.90;1.00